Time;durP1;ratioP1;P1;durP2;ratioP2;P2;SDS_P1;SDS_P2;PMS_P1;PMS_P2;Temp;Humidity;BMP_temperature;BMP_pressure;BME280_temperature;BME280_humidity;BME280_pressure;Samples;Min_cycle;Max_cycle;Signal;HPM_P1;HPM_P2
2021/12/27 00:00:55;;;;;;;23.55;12.35;;;0.70;99.90;;;;;;5011414;28;20061;-52
2021/12/27 00:03:20;;;;;;;28.98;12.65;;;0.80;99.90;;;;;;5011431;28;20045;-50
2021/12/27 00:05:46;;;;;;;25.52;13.82;;;0.80;99.90;;;;;;5011764;28;20040;-52
2021/12/27 00:08:11;;;;;;;26.52;14.20;;;0.80;99.90;;;;;;5011437;28;20033;-52
2021/12/27 00:10:37;;;;;;;23.25;12.05;;;0.80;99.90;;;;;;5011374;28;20041;-53
2021/12/27 00:13:04;;;;;;;27.67;14.48;;;0.80;99.90;;;;;;5010671;28;20092;-53
2021/12/27 00:15:30;;;;;;;28.65;14.60;;;0.70;99.90;;;;;;5011151;28;20053;-49
2021/12/27 00:17:56;;;;;;;25.50;14.20;;;0.70;99.90;;;;;;5011418;28;20034;-51
2021/12/27 00:20:22;;;;;;;26.83;14.40;;;0.80;99.90;;;;;;5011568;28;20049;-53
2021/12/27 00:22:48;;;;;;;25.42;13.05;;;0.80;99.90;;;;;;5010789;28;20042;-50
2021/12/27 00:25:15;;;;;;;28.17;14.40;;;0.80;99.90;;;;;;5011116;28;20057;-53
2021/12/27 00:27:41;;;;;;;26.60;14.57;;;0.80;99.90;;;;;;5010976;28;20045;-50
2021/12/27 00:30:09;;;;;;;27.95;14.05;;;0.80;99.90;;;;;;5160278;22;20050;-48
2021/12/27 00:32:37;;;;;;;24.55;13.70;;;0.80;99.90;;;;;;5023141;28;20120;-51
2021/12/27 00:35:07;;;;;;;27.70;13.75;;;0.90;99.90;;;;;;5031158;28;20045;-51
2021/12/27 00:37:34;;;;;;;28.38;13.98;;;0.90;99.90;;;;;;5031328;28;20084;-52
2021/12/27 00:40:00;;;;;;;25.40;14.20;;;1.00;99.90;;;;;;5018958;28;20033;-54
2021/12/27 00:42:25;;;;;;;27.17;14.00;;;0.90;99.90;;;;;;5010843;28;20046;-54
2021/12/27 00:44:51;;;;;;;22.05;12.07;;;1.00;99.90;;;;;;5011244;28;20042;-54
2021/12/27 00:47:17;;;;;;;27.35;13.55;;;1.00;99.90;;;;;;5011130;28;20037;-53
2021/12/27 00:49:42;;;;;;;27.40;13.57;;;1.00;99.90;;;;;;4977157;28;20074;-52
2021/12/27 00:52:08;;;;;;;28.52;13.60;;;1.00;99.90;;;;;;5010499;28;20487;-53
2021/12/27 00:54:35;;;;;;;28.45;14.60;;;1.10;99.90;;;;;;5014021;28;20185;-53
2021/12/27 00:57:01;;;;;;;28.60;14.40;;;1.00;99.90;;;;;;5015983;28;20436;-53
2021/12/27 00:59:27;;;;;;;27.08;14.00;;;1.00;99.90;;;;;;5015289;28;20041;-52
2021/12/27 01:01:53;;;;;;;25.42;13.90;;;1.00;99.90;;;;;;4997968;28;20124;-52
2021/12/27 01:04:21;;;;;;;29.42;14.80;;;1.00;99.90;;;;;;5016007;28;20069;-49
2021/12/27 01:06:48;;;;;;;27.20;14.45;;;0.90;99.90;;;;;;4998930;28;20513;-49
2021/12/27 01:09:25;;;;;;;29.90;14.43;;;1.00;99.90;;;;;;5015992;28;20038;-49
2021/12/27 01:12:29;;;;;;;28.85;15.10;;;1.00;99.90;;;;;;5014730;28;20056;-51
2021/12/27 01:15:08;;;;;;;26.02;14.30;;;1.10;99.90;;;;;;5003196;28;20042;-50
2021/12/27 01:17:37;;;;;;;29.75;14.57;;;1.00;99.90;;;;;;5014801;28;20053;-49
2021/12/27 01:20:07;;;;;;;28.17;15.10;;;1.00;99.90;;;;;;4964661;28;20125;-51
2021/12/27 01:22:33;;;;;;;26.77;14.68;;;1.00;99.90;;;;;;5016239;28;20037;-49
2021/12/27 01:24:59;;;;;;;26.55;14.20;;;1.10;99.90;;;;;;4998026;28;20042;-49
2021/12/27 01:27:25;;;;;;;30.10;16.10;;;1.10;99.90;;;;;;5009362;28;20106;-49
2021/12/27 01:29:50;;;;;;;28.92;15.18;;;1.00;99.90;;;;;;4997943;28;20037;-49
2021/12/27 01:32:17;;;;;;;27.40;14.88;;;1.00;99.90;;;;;;5011663;28;20065;-50
2021/12/27 01:34:42;;;;;;;28.33;14.30;;;1.00;99.90;;;;;;4997630;28;20044;-49
2021/12/27 01:37:08;;;;;;;29.08;15.07;;;1.10;99.90;;;;;;5015606;28;20132;-49
2021/12/27 01:39:36;;;;;;;32.47;16.02;;;1.10;99.90;;;;;;5015933;28;20129;-50
2021/12/27 01:42:02;;;;;;;29.20;14.80;;;1.00;99.90;;;;;;5016078;28;20088;-50
2021/12/27 01:44:35;;;;;;;29.60;16.00;;;1.10;99.90;;;;;;5015762;28;20042;-48
2021/12/27 01:47:01;;;;;;;31.73;16.10;;;1.00;99.90;;;;;;5015457;28;20062;-48
2021/12/27 01:49:26;;;;;;;29.63;15.93;;;1.10;99.90;;;;;;5014013;28;20038;-48
2021/12/27 01:51:52;;;;;;;27.25;14.57;;;1.00;99.90;;;;;;5014702;28;20045;-49
2021/12/27 01:54:18;;;;;;;30.83;15.75;;;1.10;99.90;;;;;;5015051;28;20046;-49
2021/12/27 01:56:43;;;;;;;29.40;14.95;;;1.10;99.90;;;;;;5015082;28;20514;-49
2021/12/27 01:59:09;;;;;;;33.90;16.60;;;1.10;99.90;;;;;;5015033;28;20034;-49
2021/12/27 02:01:37;;;;;;;30.38;14.85;;;1.10;99.90;;;;;;5014901;28;20042;-50
2021/12/27 02:04:06;;;;;;;30.20;15.77;;;1.10;99.90;;;;;;4982038;28;20494;-50
2021/12/27 02:06:32;;;;;;;30.08;15.77;;;1.10;99.90;;;;;;4997890;28;20056;-52
2021/12/27 02:08:57;;;;;;;31.17;16.02;;;1.10;99.90;;;;;;5015616;28;20117;-48
2021/12/27 02:11:23;;;;;;;30.92;16.10;;;1.10;99.90;;;;;;5014655;28;20056;-48
2021/12/27 02:13:49;;;;;;;31.65;15.75;;;1.10;99.90;;;;;;5014718;28;20037;-49
2021/12/27 02:16:22;;;;;;;29.85;16.00;;;1.10;99.90;;;;;;5014916;28;20042;-49
2021/12/27 02:18:49;;;;;;;31.17;17.23;;;1.10;99.90;;;;;;5014331;28;20409;-47
2021/12/27 02:21:18;;;;;;;29.42;14.75;;;1.10;99.90;;;;;;5012285;28;20033;-50
2021/12/27 02:23:44;;;;;;;32.55;17.00;;;1.20;99.90;;;;;;4998168;28;20038;-47
2021/12/27 02:26:10;;;;;;;31.48;16.90;;;1.20;99.90;;;;;;4981427;28;20045;-47
2021/12/27 02:28:36;;;;;;;29.73;16.20;;;1.10;99.90;;;;;;5014017;28;20038;-49
2021/12/27 02:31:03;;;;;;;32.90;16.50;;;1.10;99.90;;;;;;4997016;28;20400;-47
2021/12/27 02:33:29;;;;;;;33.25;16.17;;;1.20;99.90;;;;;;5013901;28;20064;-48
2021/12/27 02:35:59;;;;;;;29.60;15.63;;;1.10;99.90;;;;;;5010798;28;20088;-48
2021/12/27 02:38:29;;;;;;;;;;;1.10;99.90;;;;;;4996295;28;20038;-49
2021/12/27 02:40:56;;;;;;;34.92;16.80;;;1.20;99.90;;;;;;5014303;28;19917;-50
2021/12/27 02:43:32;;;;;;;30.15;15.25;;;1.10;99.90;;;;;;4997239;28;20073;-48
2021/12/27 02:46:06;;;;;;;33.35;16.80;;;1.20;99.90;;;;;;5012916;28;20466;-51
2021/12/27 02:48:38;;;;;;;33.80;17.48;;;1.20;99.90;;;;;;5013412;28;20399;-51
2021/12/27 02:51:05;;;;;;;26.23;14.07;;;1.10;99.90;;;;;;5014856;28;20041;-49
2021/12/27 02:53:31;;;;;;;32.60;17.40;;;1.10;99.90;;;;;;5013245;28;20074;-49
2021/12/27 02:55:59;;;;;;;33.33;17.27;;;1.10;99.90;;;;;;5014667;28;20484;-49
2021/12/27 02:58:26;;;;;;;34.20;17.92;;;1.20;99.90;;;;;;5015197;28;20044;-49
2021/12/27 03:00:59;;;;;;;34.13;16.80;;;1.20;99.90;;;;;;5015031;28;20196;-48
2021/12/27 03:03:25;;;;;;;34.72;17.15;;;1.10;99.90;;;;;;5012741;28;20106;-49
2021/12/27 03:05:51;;;;;;;32.28;16.75;;;1.10;99.90;;;;;;5013275;28;20075;-51
2021/12/27 03:08:20;;;;;;;28.98;15.35;;;1.10;99.90;;;;;;4979630;28;20038;-53
2021/12/27 03:10:51;;;;;;;30.05;16.73;;;1.20;99.90;;;;;;4999096;28;20030;-54
2021/12/27 03:13:25;;;;;;;32.05;17.42;;;1.10;99.90;;;;;;4982884;28;20065;-54
2021/12/27 03:15:57;;;;;;;32.90;16.77;;;1.10;99.90;;;;;;5015625;28;20041;-50
2021/12/27 03:18:26;;;;;;;31.23;16.33;;;1.10;99.90;;;;;;5014398;28;20049;-51
2021/12/27 03:20:53;;;;;;;31.48;16.50;;;1.10;99.90;;;;;;4998947;28;20084;-49
2021/12/27 03:23:21;;;;;;;35.05;17.90;;;1.20;99.90;;;;;;4993449;28;20133;-49
2021/12/27 03:25:50;;;;;;;32.03;17.27;;;1.20;99.90;;;;;;5007880;28;20038;-48
2021/12/27 03:28:16;;;;;;;31.45;16.48;;;1.20;99.90;;;;;;5016476;28;20076;-48
2021/12/27 03:30:42;;;;;;;31.48;16.35;;;1.20;99.90;;;;;;4997722;28;20424;-48
2021/12/27 03:33:10;;;;;;;32.85;17.77;;;1.20;99.90;;;;;;4997370;28;20050;-49
2021/12/27 03:35:39;;;;;;;31.50;16.75;;;1.20;99.90;;;;;;5010514;28;20052;-49
2021/12/27 03:38:11;;;;;;;29.23;14.57;;;1.20;99.90;;;;;;5014788;28;20463;-48
2021/12/27 03:40:38;;;;;;;32.42;17.48;;;1.30;99.90;;;;;;4979154;28;20095;-48
2021/12/27 03:43:04;;;;;;;33.00;17.20;;;1.20;99.90;;;;;;4978849;28;20096;-48
2021/12/27 03:45:34;;;;;;;32.40;16.50;;;1.30;99.90;;;;;;5012159;28;20486;-48
2021/12/27 03:48:00;;;;;;;32.45;16.30;;;1.30;99.90;;;;;;5012930;28;20046;-48
2021/12/27 03:50:26;;;;;;;35.67;18.17;;;1.20;99.90;;;;;;5000829;28;20438;-51
2021/12/27 03:52:53;;;;;;;30.65;16.95;;;1.30;99.90;;;;;;5012182;28;20089;-48
2021/12/27 03:55:24;;;;;;;35.15;17.40;;;1.20;99.90;;;;;;5011965;28;20133;-48
2021/12/27 03:57:55;;;;;;;36.15;17.90;;;1.20;99.90;;;;;;4994921;28;20069;-51
2021/12/27 04:02:53;;;;;;;34.83;17.50;;;1.20;99.90;;;;;;5011872;28;20469;-48
2021/12/27 04:05:21;;;;;;;35.10;18.00;;;1.20;99.90;;;;;;5011931;28;20065;-49
2021/12/27 04:07:57;;;;;;;33.92;17.92;;;1.20;99.90;;;;;;4963982;28;20042;-53
2021/12/27 04:10:23;;;;;;;32.08;17.83;;;1.20;99.90;;;;;;4995494;28;20041;-49
2021/12/27 04:12:49;;;;;;;36.47;18.40;;;1.20;99.90;;;;;;5012021;28;20420;-51
2021/12/27 04:15:19;;;;;;;38.78;18.55;;;1.10;99.90;;;;;;4995361;28;20497;-48
2021/12/27 04:17:45;;;;;;;38.53;19.75;;;1.20;99.90;;;;;;5012438;28;20052;-48
2021/12/27 04:20:12;;;;;;;39.63;19.38;;;1.10;99.90;;;;;;5012376;28;20034;-49
2021/12/27 04:22:38;;;;;;;33.83;18.13;;;1.20;99.90;;;;;;4993855;28;20045;-49
2021/12/27 04:25:05;;;;;;;38.35;19.08;;;1.20;99.90;;;;;;4994152;28;20037;-48
2021/12/27 04:27:31;;;;;;;38.85;18.95;;;1.20;99.90;;;;;;5011930;28;20045;-51
2021/12/27 04:29:56;;;;;;;36.13;18.73;;;1.20;99.90;;;;;;5015242;28;20034;-50
2021/12/27 04:32:22;;;;;;;37.55;18.98;;;1.20;99.90;;;;;;5015780;28;20500;-52
2021/12/27 04:34:49;;;;;;;37.30;17.85;;;1.20;99.90;;;;;;5015793;28;20042;-50
2021/12/27 04:37:16;;;;;;;36.78;18.55;;;1.20;99.90;;;;;;5016606;28;20038;-50
2021/12/27 04:39:42;;;;;;;36.00;19.25;;;1.20;99.90;;;;;;5015965;28;20108;-48
2021/12/27 04:42:08;;;;;;;36.10;18.30;;;1.30;99.90;;;;;;5017042;28;20045;-52
2021/12/27 04:44:33;;;;;;;39.95;19.45;;;1.20;99.90;;;;;;5015486;28;20045;-49
2021/12/27 04:47:00;;;;;;;38.40;19.30;;;1.20;99.90;;;;;;5015137;28;20486;-49
2021/12/27 04:49:26;;;;;;;40.97;20.15;;;1.20;99.90;;;;;;4956562;28;20045;-52
2021/12/27 04:51:51;;;;;;;35.80;18.45;;;1.20;99.90;;;;;;4996968;28;20034;-49
2021/12/27 04:54:17;;;;;;;37.95;18.65;;;1.20;99.90;;;;;;4998010;28;20049;-47
2021/12/27 04:56:47;;;;;;;35.10;17.90;;;1.20;99.90;;;;;;5015104;28;20088;-51
2021/12/27 04:59:15;;;;;;;36.45;19.13;;;1.20;99.90;;;;;;5016793;28;20034;-48
2021/12/27 05:01:41;;;;;;;33.97;17.90;;;1.20;99.90;;;;;;5017288;28;20042;-51
2021/12/27 05:04:07;;;;;;;35.70;17.98;;;1.30;99.90;;;;;;5015948;28;20053;-50
2021/12/27 05:06:32;;;;;;;41.25;19.98;;;1.40;99.90;;;;;;5015220;28;20029;-49
2021/12/27 05:08:58;;;;;;;39.95;19.15;;;1.30;99.90;;;;;;5014951;28;20060;-51
2021/12/27 05:11:23;;;;;;;36.42;17.73;;;1.30;99.90;;;;;;5014751;28;20478;-49
2021/12/27 05:13:49;;;;;;;35.45;19.10;;;1.30;99.90;;;;;;5014493;28;20124;-51
2021/12/27 05:16:15;;;;;;;44.65;20.02;;;1.30;99.90;;;;;;4981233;28;20149;-47
2021/12/27 05:18:41;;;;;;;38.20;19.40;;;1.30;99.90;;;;;;5013651;28;20109;-49
2021/12/27 05:21:06;;;;;;;36.22;19.02;;;1.30;99.90;;;;;;5014350;28;20486;-52
2021/12/27 05:23:33;;;;;;;38.60;19.42;;;1.30;99.90;;;;;;5014233;28;20045;-52
2021/12/27 05:25:59;;;;;;;42.33;18.98;;;1.20;99.90;;;;;;5014844;28;20038;-49
2021/12/27 05:28:24;;;;;;;37.05;19.35;;;1.30;99.90;;;;;;5014393;28;20552;-52
2021/12/27 05:30:51;;;;;;;40.28;20.17;;;1.30;99.90;;;;;;5014061;28;20065;-51
2021/12/27 05:33:18;;;;;;;40.03;19.38;;;1.30;99.90;;;;;;5014020;28;20398;-50
2021/12/27 05:35:43;;;;;;;39.90;19.50;;;1.30;99.90;;;;;;5014216;28;20045;-51
2021/12/27 05:38:09;;;;;;;35.90;16.30;;;1.20;99.90;;;;;;5014234;28;20037;-51
2021/12/27 05:40:35;;;;;;;40.35;19.17;;;1.30;99.90;;;;;;5013577;28;20136;-49
2021/12/27 05:43:01;;;;;;;44.75;21.08;;;1.30;99.90;;;;;;5014185;28;20044;-48
2021/12/27 05:45:27;;;;;;;39.38;19.35;;;1.30;99.90;;;;;;5014256;28;20038;-48
2021/12/27 05:47:53;;;;;;;40.58;19.60;;;1.30;99.90;;;;;;5013342;28;20041;-51
2021/12/27 05:50:19;;;;;;;39.92;19.75;;;1.30;99.90;;;;;;5013923;28;20120;-50
2021/12/27 05:52:45;;;;;;;40.60;18.67;;;1.30;99.90;;;;;;5014160;28;20538;-51
2021/12/27 05:55:11;;;;;;;39.13;19.25;;;1.30;99.90;;;;;;5014078;28;20045;-51
2021/12/27 05:57:38;;;;;;;35.80;18.35;;;1.30;99.90;;;;;;4996337;28;20049;-50
2021/12/27 06:00:06;;;;;;;37.58;18.83;;;1.30;99.90;;;;;;4980169;28;20409;-49
2021/12/27 06:02:31;;;;;;;41.17;20.15;;;1.30;99.90;;;;;;5013341;28;20042;-50
2021/12/27 06:04:57;;;;;;;42.17;20.33;;;1.30;99.90;;;;;;5013287;28;20041;-52
2021/12/27 06:07:23;;;;;;;41.28;20.13;;;1.30;99.90;;;;;;5013523;28;20038;-47
2021/12/27 06:09:49;;;;;;;41.00;19.60;;;1.40;99.90;;;;;;4979857;28;20048;-50
2021/12/27 06:12:14;;;;;;;41.55;19.95;;;1.40;99.90;;;;;;5013417;28;20042;-49
2021/12/27 06:14:40;;;;;;;44.70;20.55;;;1.40;99.90;;;;;;4996262;28;20050;-48
2021/12/27 06:17:06;;;;;;;41.03;20.48;;;1.40;99.90;;;;;;5013690;28;20049;-51
2021/12/27 06:19:32;;;;;;;40.33;19.98;;;1.40;99.90;;;;;;5013618;28;20034;-49
2021/12/27 06:21:58;;;;;;;38.67;20.10;;;1.30;99.90;;;;;;5012457;28;20038;-52
2021/12/27 06:24:24;;;;;;;41.90;20.17;;;1.40;99.90;;;;;;5013272;28;20048;-48
2021/12/27 06:26:50;;;;;;;43.35;20.73;;;1.40;99.90;;;;;;4979852;28;20117;-49
2021/12/27 06:29:15;;;;;;;41.90;20.65;;;1.40;99.90;;;;;;5011700;22;20129;31
2021/12/27 06:31:41;;;;;;;45.58;21.20;;;1.30;99.90;;;;;;4999906;28;20056;-52
2021/12/27 06:34:07;;;;;;;42.20;19.92;;;1.40;99.90;;;;;;5013077;28;20046;-51
2021/12/27 06:36:33;;;;;;;48.45;20.88;;;1.30;99.90;;;;;;5012408;28;20088;-51
2021/12/27 06:38:59;;;;;;;41.25;21.10;;;1.40;99.90;;;;;;5012933;28;20034;-52
2021/12/27 06:41:25;;;;;;;45.15;20.40;;;1.40;99.90;;;;;;5008649;28;20376;-50
2021/12/27 06:43:54;;;;;;;48.10;20.70;;;1.40;99.90;;;;;;4992278;28;20066;-52
2021/12/27 06:46:20;;;;;;;44.35;21.15;;;1.40;99.90;;;;;;4992952;28;20038;-53
2021/12/27 06:48:45;;;;;;;42.00;19.75;;;1.40;99.90;;;;;;4975860;28;20049;-51
2021/12/27 06:51:11;;;;;;;53.00;21.95;;;1.40;99.90;;;;;;4992183;28;20042;-50
2021/12/27 06:53:37;;;;;;;53.65;22.52;;;1.40;99.90;;;;;;4993229;28;20122;-52
2021/12/27 06:56:04;;;;;;;50.83;21.90;;;1.40;99.90;;;;;;4997859;28;20125;-53
2021/12/27 06:58:30;;;;;;;47.65;21.45;;;1.40;99.90;;;;;;4995191;28;20046;-51
2021/12/27 07:00:55;;;;;;;54.38;22.50;;;1.40;99.90;;;;;;4975784;28;20109;-50
2021/12/27 07:03:21;;;;;;;52.00;19.95;;;1.40;99.90;;;;;;4992244;28;20125;-52
2021/12/27 07:05:48;;;;;;;47.80;21.15;;;1.40;99.90;;;;;;4975634;28;20050;-53
2021/12/27 07:08:14;;;;;;;48.00;21.20;;;1.50;99.90;;;;;;4992729;28;20039;-52
2021/12/27 07:10:40;;;;;;;51.92;21.05;;;1.50;99.90;;;;;;4992571;28;20041;-53
2021/12/27 07:13:06;;;;;;;50.60;21.27;;;1.50;99.90;;;;;;4993181;28;20106;-50
2021/12/27 07:15:32;;;;;;;51.78;21.92;;;1.40;99.90;;;;;;4992826;28;20053;-53
2021/12/27 07:17:58;;;;;;;54.53;21.77;;;1.50;99.90;;;;;;4992741;28;20053;-53
2021/12/27 07:20:24;;;;;;;43.08;19.00;;;1.50;99.90;;;;;;4992197;28;20043;-52
2021/12/27 07:22:50;;;;;;;54.05;20.45;;;1.60;99.90;;;;;;4992415;28;20041;-52
2021/12/27 07:25:16;;;;;;;48.60;20.63;;;1.60;99.90;;;;;;4992470;28;20408;-52
2021/12/27 07:27:42;;;;;;;57.40;22.20;;;1.50;99.90;;;;;;4988628;28;20031;-52
2021/12/27 07:30:10;;;;;;;53.60;20.50;;;1.50;99.90;;;;;;4986556;28;20093;-52
2021/12/27 07:32:36;;;;;;;53.40;22.70;;;1.50;99.90;;;;;;4992115;28;20490;-50
2021/12/27 07:35:03;;;;;;;59.20;22.73;;;1.50;99.90;;;;;;4991973;28;20041;-52
2021/12/27 07:37:29;;;;;;;55.08;22.77;;;1.50;99.90;;;;;;4992434;28;20049;-52
2021/12/27 07:39:54;;;;;;;54.75;22.50;;;1.40;99.90;;;;;;4992332;28;20046;-50
2021/12/27 07:42:20;;;;;;;51.45;21.95;;;1.50;99.90;;;;;;4991599;28;20042;-51
2021/12/27 07:44:45;;;;;;;58.03;21.48;;;1.60;99.90;;;;;;4992361;28;20143;-54
2021/12/27 07:47:11;;;;;;;69.57;24.23;;;1.50;99.90;;;;;;4993210;28;20053;-53
2021/12/27 07:49:37;;;;;;;60.58;22.17;;;1.60;99.90;;;;;;4991921;28;20042;-51
2021/12/27 07:52:03;;;;;;;57.75;21.75;;;1.60;99.90;;;;;;4980837;28;20070;-54
2021/12/27 07:54:29;;;;;;;72.22;23.60;;;1.60;99.90;;;;;;4984818;28;20045;-52
2021/12/27 07:56:55;;;;;;;59.05;21.88;;;1.60;99.90;;;;;;4983874;28;20034;-51
2021/12/27 07:59:20;;;;;;;57.78;21.65;;;1.60;99.90;;;;;;4984889;28;20045;-52
2021/12/27 08:01:46;;;;;;;58.05;22.65;;;1.60;99.90;;;;;;4983165;28;20056;-55
2021/12/27 08:04:12;;;;;;;63.38;23.40;;;1.60;99.90;;;;;;4989522;28;20038;-50
2021/12/27 08:06:37;;;;;;;66.22;22.08;;;1.50;99.90;;;;;;4991905;28;20078;-51
2021/12/27 08:09:05;;;;;;;67.13;23.50;;;1.60;99.90;;;;;;4992105;28;20038;-52
2021/12/27 08:11:31;;;;;;;55.30;21.73;;;1.70;99.90;;;;;;4984662;28;20042;-53
2021/12/27 08:13:56;;;;;;;70.40;24.33;;;1.70;99.90;;;;;;4982726;28;20057;-55
2021/12/27 08:16:25;;;;;;;66.65;22.50;;;1.70;99.90;;;;;;4985999;28;20042;-52
2021/12/27 08:18:59;;;;;;;72.93;24.88;;;1.60;99.90;;;;;;4985743;28;20037;-55
2021/12/27 08:21:26;;;;;;;80.10;24.23;;;1.60;99.90;;;;;;4986510;28;20043;-54
2021/12/27 08:23:52;;;;;;;63.97;24.20;;;1.60;99.90;;;;;;4988115;28;20122;-52
2021/12/27 08:26:19;;;;;;;68.80;24.38;;;1.60;99.90;;;;;;4963528;28;20494;-52
2021/12/27 08:28:49;;;;;;;74.70;23.63;;;1.60;99.90;;;;;;4985839;28;20470;-53
2021/12/27 08:31:15;;;;;;;69.95;24.40;;;1.70;99.90;;;;;;4989731;28;20043;-53
2021/12/27 08:33:40;;;;;;;66.80;23.60;;;1.70;99.90;;;;;;4991593;28;20040;-51
2021/12/27 08:36:06;;;;;;;82.95;24.45;;;1.70;99.90;;;;;;4991645;28;20045;-52
2021/12/27 08:38:32;;;;;;;70.90;25.00;;;1.70;99.90;;;;;;4994014;28;20093;-52
2021/12/27 08:40:57;;;;;;;72.20;23.30;;;1.70;99.90;;;;;;4991716;28;20042;-50
2021/12/27 08:43:25;;;;;;;71.93;23.00;;;1.70;99.90;;;;;;4974098;28;20483;-52
2021/12/27 08:45:51;;;;;;;86.78;23.70;;;1.70;99.90;;;;;;4990953;28;20045;-49
2021/12/27 08:48:17;;;;;;;83.18;24.35;;;1.70;99.90;;;;;;4991846;28;20042;-50
2021/12/27 08:50:43;;;;;;;79.95;25.40;;;1.70;99.90;;;;;;4986899;28;20664;-49
2021/12/27 08:53:08;;;;;;;74.57;25.77;;;1.80;99.90;;;;;;4983857;28;20042;-49
2021/12/27 08:55:35;;;;;;;83.15;24.38;;;1.80;99.90;;;;;;4998664;28;20046;-52
2021/12/27 08:58:02;;;;;;;66.38;22.95;;;1.80;99.90;;;;;;4990956;28;20513;-50
2021/12/27 09:00:28;;;;;;;82.30;23.10;;;1.80;99.90;;;;;;4991234;28;20100;-52
2021/12/27 09:02:53;;;;;;;87.45;23.85;;;1.90;99.90;;;;;;4991349;28;20038;-49
2021/12/27 09:05:19;;;;;;;86.38;25.65;;;1.80;99.90;;;;;;4991641;28;20038;-50
2021/12/27 09:07:45;;;;;;;81.07;25.63;;;2.20;99.90;;;;;;4991485;28;20069;-50
2021/12/27 09:10:10;;;;;;;91.07;24.80;;;1.80;99.90;;;;;;4990641;28;20037;-50
2021/12/27 09:12:38;;;;;;;83.93;24.27;;;1.80;99.90;;;;;;5000283;28;20038;-51
2021/12/27 09:15:04;;;;;;;89.90;26.05;;;1.90;99.90;;;;;;4994599;28;20053;-49
2021/12/27 09:17:30;;;;;;;79.05;23.77;;;1.90;99.90;;;;;;4994538;28;20042;-49
2021/12/27 09:19:55;;;;;;;119.47;25.77;;;1.90;99.90;;;;;;4996880;28;20489;-50
2021/12/27 09:22:21;;;;;;;89.85;25.48;;;1.90;99.90;;;;;;4994339;28;20038;-49
2021/12/27 09:24:46;;;;;;;96.60;23.15;;;1.90;99.90;;;;;;5001893;28;20049;-52
2021/12/27 09:27:12;;;;;;;111.35;26.38;;;2.00;99.90;;;;;;4994712;28;20034;-49
2021/12/27 09:29:41;;;;;;;97.28;26.33;;;2.00;99.90;;;;;;4999594;28;20727;-50
2021/12/27 09:32:06;;;;;;;80.45;26.20;;;2.00;99.90;;;;;;4997946;28;20048;-49
2021/12/27 09:34:32;;;;;;;67.28;21.38;;;1.90;99.90;;;;;;5003327;28;20042;-49
2021/12/27 09:36:58;;;;;;;76.50;24.70;;;2.00;99.90;;;;;;5008568;28;20406;-49
2021/12/27 09:39:23;;;;;;;91.50;24.83;;;2.10;99.90;;;;;;4994124;28;20042;-52
2021/12/27 09:41:49;;;;;;;86.03;23.77;;;2.10;99.90;;;;;;4993976;28;20044;-53
2021/12/27 09:44:14;;;;;;;73.38;22.52;;;2.10;99.90;;;;;;4976230;28;20109;-52
2021/12/27 09:46:40;;;;;;;91.13;24.50;;;2.10;99.90;;;;;;4992660;28;20446;-52
2021/12/27 09:49:10;;;;;;;81.07;24.10;;;2.20;99.90;;;;;;4983957;28;20048;-55
2021/12/27 09:51:37;;;;;;;79.95;23.80;;;2.20;99.90;;;;;;4985034;28;20323;-54
2021/12/27 09:54:03;;;;;;;75.90;23.98;;;2.20;99.90;;;;;;4989577;28;20035;-53
2021/12/27 09:56:29;;;;;;;85.95;24.83;;;2.20;99.90;;;;;;4985554;28;20050;-55
2021/12/27 09:58:55;;;;;;;98.72;25.63;;;2.20;99.90;;;;;;4983655;28;20057;-50
2021/12/27 10:01:21;;;;;;;92.75;25.27;;;2.20;99.90;;;;;;4984125;28;20034;-50
2021/12/27 10:03:51;;;;;;;75.00;23.23;;;2.20;99.90;;;;;;4983809;28;20026;-53
2021/12/27 10:06:18;;;;;;;77.07;25.38;;;2.30;99.90;;;;;;4976927;28;20086;-54
2021/12/27 10:08:50;;;;;;;86.75;23.73;;;2.30;99.90;;;;;;4984626;28;20050;-53
2021/12/27 10:11:20;;;;;;;57.03;22.43;;;2.40;99.90;;;;;;4980923;28;20034;-51
2021/12/27 10:14:07;;;;;;;73.40;23.08;;;2.40;99.90;;;;;;4981076;28;20049;-56
2021/12/27 10:16:39;;;;;;;78.97;22.63;;;2.50;99.90;;;;;;4980753;28;20125;-51
2021/12/27 10:19:10;;;;;;;113.07;26.15;;;2.50;99.90;;;;;;4986694;28;20044;-50
2021/12/27 10:21:36;;;;;;;88.50;25.17;;;2.40;99.90;;;;;;4986528;28;20086;-52
2021/12/27 10:24:16;;;;;;;90.57;24.80;;;2.40;99.90;;;;;;4980834;28;20043;-52
2021/12/27 10:26:44;;;;;;;102.82;22.13;;;2.40;99.90;;;;;;4986877;28;20478;-51
2021/12/27 10:29:15;;;;;;;98.25;25.85;;;2.50;99.90;;;;;;4969000;28;20104;-53
2021/12/27 10:32:02;;;;;;;91.87;24.70;;;2.60;99.90;;;;;;4983400;28;20402;-52
2021/12/27 10:34:36;;;;;;;103.43;25.83;;;2.70;99.90;;;;;;4964839;28;20066;-49
2021/12/27 10:37:21;;;;;;;89.43;25.80;;;2.70;99.90;;;;;;4983293;28;20037;-51
2021/12/27 10:39:56;;;;;;;98.00;26.75;;;2.70;99.90;;;;;;4981529;28;20085;-51
2021/12/27 10:42:27;;;;;;;81.93;21.65;;;2.70;99.90;;;;;;4980403;28;20510;-50
2021/12/27 10:44:59;;;;;;;90.22;24.40;;;2.80;99.90;;;;;;4982507;28;20038;-53
2021/12/27 10:47:41;;;;;;;78.78;24.88;;;2.80;99.90;;;;;;4993026;28;20038;-51
2021/12/27 10:50:24;;;;;;;108.22;25.67;;;2.80;99.90;;;;;;4993081;28;20113;-52
2021/12/27 10:53:06;;;;;;;116.40;26.88;;;2.80;99.90;;;;;;4985319;28;20372;-52
2021/12/27 10:55:38;;;;;;;95.03;25.92;;;2.80;99.90;;;;;;4993490;28;20050;-52
2021/12/27 10:58:12;;;;;;;136.07;28.13;;;2.80;99.90;;;;;;4994204;28;20046;-52
2021/12/27 11:00:39;;;;;;;114.35;27.83;;;2.90;99.90;;;;;;4992514;28;20454;-49
2021/12/27 11:03:05;;;;;;;111.78;28.90;;;2.80;99.90;;;;;;4992860;28;20034;-50
2021/12/27 11:05:35;;;;;;;127.68;28.60;;;2.90;99.90;;;;;;4990117;28;20045;-53
2021/12/27 11:08:05;;;;;;;130.20;27.02;;;2.90;99.90;;;;;;4990216;28;20035;-51
2021/12/27 11:10:35;;;;;;;120.85;27.08;;;2.90;99.90;;;;;;4984884;28;20431;-52
2021/12/27 11:13:03;;;;;;;129.93;29.33;;;2.90;99.90;;;;;;4973931;28;20042;-52
2021/12/27 11:15:30;;;;;;;130.85;35.72;;;3.00;99.90;;;;;;4992667;28;20101;-52
2021/12/27 11:17:57;;;;;;;132.05;29.80;;;3.00;99.90;;;;;;4992245;28;20046;-50
2021/12/27 11:20:23;;;;;;;119.03;28.88;;;3.00;99.90;;;;;;4992264;28;20042;-52
2021/12/27 11:22:51;;;;;;;138.30;29.20;;;3.00;99.90;;;;;;4992085;28;20112;-52
2021/12/27 11:25:30;;;;;;;100.97;27.48;;;3.00;99.90;;;;;;4973168;28;20081;-52
2021/12/27 11:27:57;;;;;;;144.43;27.92;;;3.00;99.90;;;;;;4986855;28;20054;-49
2021/12/27 11:30:29;;;;;;;109.15;25.83;;;3.20;99.90;;;;;;4988726;28;20063;-52
2021/12/27 11:32:59;;;;;;;120.38;28.00;;;3.10;99.90;;;;;;4986967;28;20042;-52
2021/12/27 11:35:25;;;;;;;90.60;28.70;;;3.10;99.90;;;;;;4989219;28;20121;-52
2021/12/27 11:37:51;;;;;;;136.15;28.25;;;3.10;99.90;;;;;;4987173;28;20133;-52
2021/12/27 11:40:17;;;;;;;91.55;28.38;;;3.20;99.90;;;;;;4976534;28;20050;-54
2021/12/27 11:42:53;;;;;;;92.15;26.85;;;3.20;99.90;;;;;;4989826;28;20053;-53
2021/12/27 11:45:39;;;;;;;130.15;31.25;;;3.30;99.90;;;;;;4983214;28;20038;-52
2021/12/27 11:48:14;;;;;;;89.97;27.45;;;3.30;99.90;;;;;;4963044;28;20044;-51
2021/12/27 11:51:00;;;;;;;102.72;27.60;;;3.30;99.90;;;;;;4988520;28;20096;-52
2021/12/27 11:53:26;;;;;;;96.68;27.60;;;3.40;99.90;;;;;;4982950;28;20489;-51
2021/12/27 11:55:52;;;;;;;117.70;30.40;;;3.40;99.90;;;;;;4979230;28;20503;-52
2021/12/27 11:58:35;;;;;;;107.38;30.42;;;3.40;99.90;;;;;;4985898;28;20132;-53
2021/12/27 12:01:21;;;;;;;94.97;27.60;;;3.50;99.90;;;;;;4980682;28;20526;-53
2021/12/27 12:03:48;;;;;;;100.20;28.13;;;3.50;99.90;;;;;;4966919;28;20050;-52
2021/12/27 12:06:37;;;;;;;94.22;28.30;;;3.50;99.90;;;;;;4971543;28;20054;-53
2021/12/27 12:09:42;;;;;;;103.10;28.30;;;3.50;99.90;;;;;;4984853;28;20054;-53
2021/12/27 12:12:11;;;;;;;97.65;28.00;;;3.60;99.90;;;;;;4970642;28;20118;-52
2021/12/27 12:14:36;;;;;;;75.28;26.30;;;3.60;99.90;;;;;;4979158;28;20053;-54
2021/12/27 12:17:10;;;;;;;79.85;24.88;;;3.70;99.90;;;;;;4985321;28;20038;-53
2021/12/27 12:19:36;;;;;;;79.43;26.98;;;3.70;99.90;;;;;;4985116;28;20031;-55
2021/12/27 12:22:03;;;;;;;98.88;32.20;;;3.80;99.90;;;;;;4979050;28;20035;-53
2021/12/27 12:24:28;;;;;;;93.60;31.77;;;3.70;99.90;;;;;;4990599;28;20121;-55
2021/12/27 12:26:58;;;;;;;78.45;28.08;;;3.80;99.90;;;;;;4970819;28;20073;-54
2021/12/27 12:29:26;;;;;;;82.20;30.48;;;3.90;99.90;;;;;;4990290;28;20486;-55
2021/12/27 12:32:01;;;;;;;90.55;29.98;;;3.90;99.90;;;;;;5048365;23;20065;-51
2021/12/27 12:34:27;;;;;;;94.32;30.05;;;3.90;99.90;;;;;;5009967;28;20497;-47
2021/12/27 12:37:00;;;;;;;94.18;30.25;;;3.90;99.90;;;;;;5010457;28;20026;-49
2021/12/27 12:39:38;;;;;;;75.78;27.95;;;4.00;99.90;;;;;;5010557;28;20088;-48
2021/12/27 12:42:07;;;;;;;74.88;24.77;;;4.00;99.90;;;;;;4999169;28;20050;-49